createdAt,value
2018-11-12T00:02:24.519Z,14.76
2018-11-12T00:04:53.001Z,15.41
2018-11-12T00:07:21.480Z,15.45
2018-11-12T00:09:49.984Z,14.83
2018-11-12T00:12:18.486Z,15.43
2018-11-12T00:14:46.968Z,15.00
2018-11-12T00:17:15.541Z,15.20
2018-11-12T00:19:44.004Z,15.39
2018-11-12T00:22:12.512Z,15.25
2018-11-12T00:24:40.983Z,14.66
2018-11-12T00:27:09.444Z,15.12
2018-11-12T00:29:38.031Z,15.19
2018-11-12T00:32:06.848Z,15.16
2018-11-12T00:34:35.348Z,15.48
2018-11-12T00:37:03.812Z,15.32
2018-11-12T00:39:32.311Z,15.03
2018-11-12T00:42:00.780Z,15.43
2018-11-12T00:44:29.548Z,15.48
2018-11-12T00:46:58.396Z,15.21
2018-11-12T00:49:26.872Z,15.02
2018-11-12T00:51:55.351Z,15.07
2018-11-12T00:54:23.820Z,15.01
2018-11-12T00:56:52.268Z,14.78
2018-11-12T00:59:20.751Z,15.11
2018-11-12T01:01:49.225Z,14.46
2018-11-12T01:04:17.837Z,14.78
2018-11-12T01:06:46.228Z,14.94
2018-11-12T01:09:15.276Z,15.29
2018-11-12T01:11:43.700Z,15.23
2018-11-12T01:14:12.240Z,15.19
2018-11-12T01:16:40.788Z,15.53
2018-11-12T01:19:09.276Z,14.85
2018-11-12T01:21:37.768Z,14.88
2018-11-12T01:24:06.628Z,15.37
2018-11-12T01:26:35.088Z,15.20
2018-11-12T01:29:03.581Z,15.26
2018-11-12T01:31:32.075Z,14.88
2018-11-12T01:34:00.556Z,15.34
2018-11-12T01:36:29.052Z,15.20
2018-11-12T01:38:57.519Z,15.15
2018-11-12T01:41:26.009Z,14.98
2018-11-12T01:43:54.469Z,15.03
2018-11-12T01:46:22.963Z,15.08
2018-11-12T01:48:51.415Z,15.15
2018-11-12T01:51:19.915Z,15.07
2018-11-12T01:53:48.423Z,15.07
2018-11-12T01:56:16.952Z,15.28
2018-11-12T01:58:45.524Z,14.96
2018-11-12T02:01:14.295Z,14.56
2018-11-12T02:03:42.757Z,14.95
2018-11-12T02:06:11.243Z,14.88
2018-11-12T02:08:39.755Z,14.85
2018-11-12T02:11:08.200Z,14.67
2018-11-12T02:13:36.956Z,15.22
2018-11-12T02:16:08.305Z,14.88
2018-11-12T02:18:36.795Z,15.14
2018-11-12T02:21:05.965Z,14.35
2018-11-12T02:23:34.491Z,14.49
2018-11-12T02:26:02.984Z,14.28
2018-11-12T02:28:31.483Z,14.26
2018-11-12T02:30:59.968Z,14.30
2018-11-12T02:33:28.455Z,14.00
2018-11-12T02:35:56.948Z,13.98
2018-11-12T02:38:25.971Z,14.35
2018-11-12T02:40:54.442Z,14.84
2018-11-12T02:43:23.024Z,15.36
2018-11-12T02:45:51.514Z,15.08
2018-11-12T02:48:19.999Z,15.54
2018-11-12T02:50:48.499Z,14.59
2018-11-12T02:53:17.075Z,14.65
2018-11-12T02:55:45.562Z,14.55
2018-11-12T02:58:14.026Z,15.23
2018-11-12T03:00:42.541Z,14.92
2018-11-12T03:03:11.039Z,14.80
2018-11-12T03:05:39.541Z,14.28
2018-11-12T03:08:07.980Z,14.78
2018-11-12T03:10:36.493Z,15.36
2018-11-12T03:13:05.386Z,15.55
2018-11-12T03:15:33.883Z,14.95
2018-11-12T03:18:02.337Z,14.60
2018-11-12T03:20:30.943Z,15.16
2018-11-12T03:22:59.461Z,14.88
2018-11-12T03:25:27.985Z,14.89
2018-11-12T03:27:56.540Z,14.73
2018-11-12T03:30:25.025Z,14.85
2018-11-12T03:32:54.075Z,14.93
2018-11-12T03:35:22.595Z,15.06
2018-11-12T03:37:51.659Z,15.13
2018-11-12T03:40:22.622Z,15.39
2018-11-12T03:42:51.592Z,15.00
2018-11-12T03:45:24.802Z,15.19
2018-11-12T03:47:53.475Z,15.02
2018-11-12T03:50:23.460Z,14.53
2018-11-12T03:52:52.060Z,14.97
2018-11-12T03:55:21.791Z,15.32
2018-11-12T03:57:50.262Z,15.12
2018-11-12T04:00:21.229Z,14.53
2018-11-12T04:02:49.683Z,14.40
2018-11-12T04:05:18.152Z,15.09
2018-11-12T04:07:46.675Z,14.98
2018-11-12T04:10:17.943Z,14.57
2018-11-12T04:12:46.462Z,15.19
2018-11-12T04:15:16.553Z,15.00
2018-11-12T04:17:45.040Z,14.94
2018-11-12T04:20:14.920Z,14.82
2018-11-12T04:22:50.797Z,14.67
2018-11-12T04:25:19.729Z,14.69
2018-11-12T04:27:48.211Z,14.23
2018-11-12T04:30:16.837Z,14.04
2018-11-12T04:32:46.647Z,13.99
2018-11-12T04:35:15.123Z,14.23
2018-11-12T04:37:43.659Z,13.51
2018-11-12T04:40:14.751Z,14.02
2018-11-12T04:42:43.576Z,13.69
2018-11-12T04:45:13.810Z,13.83
2018-11-12T04:47:43.280Z,13.71
2018-11-12T04:50:14.207Z,14.27
2018-11-12T04:52:43.019Z,14.08
2018-11-12T04:55:15.995Z,14.56
2018-11-12T04:57:44.964Z,14.89
2018-11-12T05:00:18.008Z,16.09
2018-11-12T05:02:46.476Z,15.54
2018-11-12T05:05:16.283Z,16.35
2018-11-12T05:07:45.318Z,17.33
2018-11-12T05:10:16.352Z,15.48
2018-11-12T05:13:47.757Z,16.11
2018-11-12T05:16:16.255Z,15.41
2018-11-12T05:18:44.724Z,15.23
2018-11-12T05:21:13.201Z,16.15
2018-11-12T05:23:41.653Z,17.40
2018-11-12T05:26:10.098Z,15.25
2018-11-12T05:28:38.634Z,15.98
2018-11-12T05:31:07.119Z,17.26
2018-11-12T05:33:35.662Z,17.49
2018-11-12T05:36:04.164Z,17.00
2018-11-12T05:38:32.663Z,17.23
2018-11-12T05:41:01.162Z,15.54
2018-11-12T05:43:29.604Z,15.18
2018-11-12T05:45:58.104Z,14.90
2018-11-12T05:48:26.828Z,15.40
2018-11-12T05:50:55.297Z,15.56
2018-11-12T05:53:23.767Z,14.53
2018-11-12T05:55:52.301Z,14.93
2018-11-12T05:58:20.784Z,14.62
2018-11-12T06:00:49.319Z,14.87
2018-11-12T06:03:17.788Z,14.56
2018-11-12T06:05:46.284Z,15.24
2018-11-12T06:08:14.739Z,14.03
2018-11-12T06:10:43.284Z,14.33
2018-11-12T06:13:11.762Z,14.17
2018-11-12T06:15:40.236Z,14.74
2018-11-12T06:18:08.745Z,14.64
2018-11-12T06:20:37.243Z,14.93
2018-11-12T06:23:06.071Z,14.64
2018-11-12T06:25:35.698Z,14.93
2018-11-12T06:28:04.408Z,14.73
2018-11-12T06:30:34.307Z,14.78
2018-11-12T06:33:02.885Z,15.08
2018-11-12T06:35:31.426Z,15.09
2018-11-12T06:38:00.140Z,15.23
2018-11-12T06:40:29.198Z,15.01
2018-11-12T06:42:57.735Z,14.97
2018-11-12T06:45:28.598Z,14.73
2018-11-12T06:47:58.121Z,15.09
2018-11-12T06:50:27.912Z,15.20
2018-11-12T06:52:56.838Z,14.93
2018-11-12T06:55:25.330Z,15.17
2018-11-12T06:57:54.952Z,14.98
2018-11-12T07:00:30.552Z,15.36
2018-11-12T07:02:59.039Z,15.63
2018-11-12T07:05:27.974Z,15.42
2018-11-12T07:07:56.445Z,14.63
2018-11-12T07:10:26.239Z,15.20
2018-11-12T07:12:55.409Z,15.37
2018-11-12T07:15:25.452Z,15.63
2018-11-12T07:17:53.980Z,14.63
2018-11-12T07:20:24.000Z,14.63
2018-11-12T07:22:52.933Z,15.38
2018-11-12T07:25:23.430Z,14.40
2018-11-12T07:27:51.867Z,15.12
2018-11-12T07:30:23.206Z,14.97
2018-11-12T07:32:52.724Z,15.38
2018-11-12T07:35:21.717Z,14.78
2018-11-12T07:37:51.565Z,15.42
2018-11-12T07:40:20.567Z,14.79
2018-11-12T07:42:49.108Z,15.13
2018-11-12T07:45:18.930Z,15.03
2018-11-12T07:47:48.436Z,14.96
2018-11-12T07:50:20.297Z,15.08
2018-11-12T07:52:48.792Z,15.19
2018-11-12T07:55:19.292Z,15.04
2018-11-12T07:57:49.300Z,15.29
2018-11-12T08:00:22.104Z,14.49
2018-11-12T08:02:51.841Z,14.82
2018-11-12T08:05:20.340Z,14.80
2018-11-12T08:07:49.056Z,14.69
2018-11-12T08:10:18.735Z,14.52
2018-11-12T08:12:47.955Z,14.73
2018-11-12T08:15:18.016Z,14.62
2018-11-12T08:17:46.716Z,14.90
2018-11-12T08:20:18.632Z,14.72
2018-11-12T08:22:48.485Z,14.31
2018-11-12T08:25:16.970Z,15.06
2018-11-12T08:27:45.907Z,14.83
2018-11-12T08:30:23.545Z,15.00
2018-11-12T08:32:53.814Z,14.73
2018-11-12T08:35:22.320Z,15.27
2018-11-12T08:37:51.536Z,15.21
2018-11-12T08:40:22.229Z,15.15
2018-11-12T08:42:50.714Z,14.97
2018-11-12T08:45:19.204Z,15.27
2018-11-12T08:47:49.342Z,15.35
2018-11-12T08:50:19.254Z,14.60
2018-11-12T08:52:48.878Z,15.11
2018-11-12T08:55:19.713Z,15.10
2018-11-12T08:57:49.667Z,14.99
2018-11-12T09:00:19.236Z,15.18
2018-11-12T09:02:48.099Z,15.26
2018-11-12T09:05:17.634Z,15.49
2018-11-12T09:07:47.679Z,15.35
2018-11-12T09:13:48.889Z,14.94
2018-11-12T09:16:17.480Z,14.88
2018-11-12T09:18:46.088Z,14.79
2018-11-12T09:21:14.795Z,15.34
2018-11-12T09:23:43.296Z,15.23
2018-11-12T09:26:11.783Z,14.64
2018-11-12T09:28:40.295Z,15.04
2018-11-12T09:31:09.887Z,14.64
2018-11-12T09:33:37.371Z,14.78
2018-11-12T09:36:05.962Z,14.67
2018-11-12T09:38:34.505Z,15.00
2018-11-12T09:41:02.972Z,14.90
2018-11-12T09:43:31.436Z,15.08
2018-11-12T09:46:00.010Z,15.22
2018-11-12T09:48:28.428Z,14.78
2018-11-12T09:50:56.964Z,15.04
2018-11-12T09:53:25.706Z,14.63
2018-11-12T09:55:54.183Z,15.16
2018-11-12T09:58:22.673Z,15.13
2018-11-12T10:00:51.446Z,15.59
2018-11-12T10:03:27.761Z,15.44
2018-11-12T10:05:58.483Z,15.25
2018-11-12T10:08:29.190Z,15.34
2018-11-12T10:10:59.196Z,15.13
2018-11-12T10:13:28.178Z,15.26
2018-11-12T10:15:58.023Z,14.90
2018-11-12T10:18:24.120Z,15.19
2018-11-12T10:20:52.582Z,15.07
2018-11-12T10:23:21.835Z,15.04
2018-11-12T10:25:50.539Z,15.31
2018-11-12T10:28:20.439Z,14.96
2018-11-12T10:30:49.361Z,15.24
2018-11-12T10:33:18.767Z,15.25
2018-11-12T10:35:47.535Z,15.57
2018-11-12T10:38:16.969Z,14.60
2018-11-12T10:40:45.590Z,15.55
2018-11-12T10:43:14.035Z,15.12
2018-11-12T10:45:42.528Z,15.51
2018-11-12T10:48:11.311Z,15.40
2018-11-12T10:50:40.147Z,15.20
2018-11-12T10:53:08.667Z,15.18
2018-11-12T10:55:37.290Z,15.20
2018-11-12T10:58:06.249Z,15.35
2018-11-12T11:00:40.377Z,15.54
2018-11-12T11:03:50.293Z,15.24
2018-11-12T11:06:18.807Z,16.14
2018-11-12T11:08:47.275Z,15.57
2018-11-12T11:11:15.795Z,15.14
2018-11-12T11:13:44.331Z,15.42
2018-11-12T11:16:12.816Z,15.08
2018-11-12T11:18:41.321Z,15.10
2018-11-12T11:21:09.807Z,14.24
2018-11-12T11:23:38.245Z,14.65
2018-11-12T11:26:06.776Z,14.35
2018-11-12T11:28:35.235Z,14.94
2018-11-12T11:31:03.818Z,14.08
2018-11-12T11:33:32.528Z,14.37
2018-11-12T11:36:00.997Z,15.30
2018-11-12T11:38:29.735Z,14.62
2018-11-12T11:40:58.451Z,15.19
2018-11-12T11:43:26.952Z,15.23
2018-11-12T11:45:55.951Z,14.79
2018-11-12T11:48:24.784Z,14.45
2018-11-12T11:50:53.353Z,14.97
2018-11-12T11:53:21.745Z,14.06
2018-11-12T11:55:50.541Z,14.01
2018-11-12T11:58:19.047Z,15.00
2018-11-12T12:00:47.902Z,14.93
2018-11-12T12:03:16.389Z,15.18
2018-11-12T12:05:45.188Z,16.40
2018-11-12T12:08:13.693Z,15.99
2018-11-12T12:11:45.452Z,14.55
2018-11-12T12:14:13.897Z,14.59
2018-11-12T12:16:42.439Z,14.77
2018-11-12T12:19:10.958Z,15.31
2018-11-12T12:21:40.471Z,14.76
2018-11-12T12:24:08.951Z,14.90
2018-11-12T12:26:37.642Z,15.29
2018-11-12T12:29:06.539Z,14.77
2018-11-12T12:31:35.363Z,15.30
2018-11-12T12:34:04.094Z,14.57
2018-11-12T12:36:32.771Z,16.02
2018-11-12T12:39:01.295Z,16.27
2018-11-12T12:41:29.751Z,15.67
2018-11-12T12:43:58.204Z,15.91
2018-11-12T12:46:26.716Z,15.97
2018-11-12T12:48:55.230Z,15.85
2018-11-12T12:51:23.725Z,15.55
2018-11-12T12:53:52.477Z,16.06
2018-11-12T12:56:20.934Z,15.89
2018-11-12T12:58:49.842Z,15.64
2018-11-12T13:01:18.308Z,16.12
2018-11-12T13:03:46.891Z,15.94
2018-11-12T13:06:15.416Z,15.81
2018-11-12T13:08:44.104Z,15.93
2018-11-12T13:11:12.644Z,15.63
2018-11-12T13:13:41.144Z,15.56
2018-11-12T13:16:10.063Z,15.66
2018-11-12T13:18:38.535Z,15.78
2018-11-12T13:21:07.150Z,15.93
2018-11-12T13:23:36.428Z,15.84
2018-11-12T13:26:04.955Z,15.62
2018-11-12T13:28:33.471Z,15.52
2018-11-12T13:31:01.964Z,16.12
2018-11-12T13:33:30.533Z,16.16
2018-11-12T13:35:59.101Z,15.92
2018-11-12T13:38:27.635Z,15.99
2018-11-12T13:40:56.115Z,16.30
2018-11-12T13:43:24.583Z,16.15
2018-11-12T13:45:53.070Z,15.73
2018-11-12T13:48:21.607Z,16.06
2018-11-12T13:50:50.062Z,15.79
2018-11-12T13:53:18.565Z,15.47
2018-11-12T13:55:47.045Z,16.01
2018-11-12T13:58:15.511Z,16.16
2018-11-12T14:00:44.009Z,15.85
2018-11-12T14:03:12.484Z,15.63
2018-11-12T14:05:41.228Z,15.51
2018-11-12T14:08:09.903Z,15.77
2018-11-12T14:10:38.383Z,16.17
2018-11-12T14:13:06.863Z,16.36
2018-11-12T14:15:41.953Z,15.89
2018-11-12T14:18:10.491Z,15.90
2018-11-12T14:20:39.153Z,15.52
2018-11-12T14:23:07.469Z,16.16
2018-11-12T14:25:35.975Z,15.58
2018-11-12T14:28:04.509Z,15.50
2018-11-12T14:30:33.013Z,15.61
2018-11-12T14:33:01.520Z,15.45
2018-11-12T14:35:30.445Z,15.53
2018-11-12T14:37:59.203Z,15.63
2018-11-12T14:40:27.692Z,15.66
2018-11-12T14:42:56.240Z,16.02
2018-11-12T14:45:24.841Z,16.01
2018-11-12T14:47:53.271Z,15.86
2018-11-12T14:50:22.113Z,15.72
2018-11-12T14:52:50.619Z,15.32
2018-11-12T14:55:19.452Z,15.37
2018-11-12T14:57:47.944Z,15.83
2018-11-12T15:00:19.079Z,15.50
2018-11-12T15:02:48.836Z,15.79
2018-11-12T15:05:18.560Z,15.82
2018-11-12T15:07:47.955Z,15.49
2018-11-12T15:10:16.483Z,15.24
2018-11-12T15:12:45.863Z,15.42
2018-11-12T15:15:14.906Z,15.09
2018-11-12T15:17:43.751Z,15.21
2018-11-12T15:20:15.145Z,15.72
2018-11-12T15:22:44.112Z,15.53
2018-11-12T15:25:14.999Z,15.22
2018-11-12T15:27:43.950Z,15.78
2018-11-12T15:30:14.997Z,15.30
2018-11-12T15:32:44.312Z,15.13
2018-11-12T15:35:13.561Z,15.48
2018-11-12T15:37:42.899Z,15.61
2018-11-12T15:40:12.379Z,15.88
2018-11-12T15:42:44.069Z,15.48
2018-11-12T15:45:18.174Z,15.25
2018-11-12T15:47:48.591Z,15.67
2018-11-12T15:50:29.506Z,14.98
2018-11-12T15:53:01.124Z,14.88
2018-11-12T15:55:31.936Z,14.93
2018-11-12T15:58:03.591Z,14.77
2018-11-12T16:00:33.837Z,15.06
2018-11-12T16:03:05.254Z,15.36
2018-11-12T16:05:35.776Z,15.60
2018-11-12T16:08:04.513Z,15.18
2018-11-12T16:10:33.038Z,15.28
2018-11-12T16:13:01.755Z,14.60
2018-11-12T16:15:30.447Z,14.63
2018-11-12T16:17:59.224Z,14.39
2018-11-12T16:20:29.347Z,14.78
2018-11-12T16:22:58.937Z,14.55
2018-11-12T16:25:28.305Z,15.00
2018-11-12T16:27:57.219Z,14.59
2018-11-12T16:30:25.726Z,14.51
2018-11-12T16:32:54.397Z,14.82
2018-11-12T16:35:24.190Z,14.98
2018-11-12T16:37:54.044Z,14.68
2018-11-12T16:40:22.571Z,14.47
2018-11-12T16:42:51.512Z,14.73
2018-11-12T16:45:19.979Z,14.82
2018-11-12T16:47:48.760Z,15.14
2018-11-12T16:50:17.786Z,15.15
2018-11-12T16:52:46.580Z,15.08
2018-11-12T16:55:17.451Z,14.86
2018-11-12T16:57:46.104Z,14.79
2018-11-12T17:01:17.573Z,14.77
2018-11-12T17:03:46.222Z,14.99
2018-11-12T17:06:14.707Z,14.94
2018-11-12T17:08:43.193Z,14.96
2018-11-12T17:11:11.723Z,14.57
2018-11-12T17:13:40.232Z,14.50
2018-11-12T17:16:08.699Z,15.15
2018-11-12T17:18:37.205Z,14.51
2018-11-12T17:21:05.997Z,14.86
2018-11-12T17:23:34.548Z,14.70
2018-11-12T17:26:03.370Z,14.51
2018-11-12T17:28:31.935Z,14.89
2018-11-12T17:31:00.566Z,14.82
2018-11-12T17:33:29.035Z,14.58
2018-11-12T17:35:57.521Z,14.77
2018-11-12T17:38:26.030Z,14.75
2018-11-12T17:40:54.754Z,14.63
2018-11-12T17:43:23.555Z,14.63
2018-11-12T17:45:51.996Z,15.07
2018-11-12T17:48:20.540Z,15.28
2018-11-12T17:50:49.008Z,15.02
2018-11-12T17:53:17.723Z,14.87
2018-11-12T17:55:46.396Z,14.92
2018-11-12T17:58:14.928Z,15.01
2018-11-12T18:00:43.646Z,15.02
2018-11-12T18:03:12.139Z,14.59
2018-11-12T18:05:40.612Z,15.17
2018-11-12T18:08:09.263Z,15.32
2018-11-12T18:10:37.556Z,15.21
2018-11-12T18:13:06.936Z,15.03
2018-11-12T18:15:35.452Z,15.34
2018-11-12T18:18:03.921Z,15.16
2018-11-12T18:20:32.676Z,15.25
2018-11-12T18:23:01.232Z,15.07
2018-11-12T18:25:29.880Z,14.92
2018-11-12T18:27:58.388Z,14.83
2018-11-12T18:30:28.601Z,15.45
2018-11-12T18:32:58.243Z,14.86
2018-11-12T18:35:26.981Z,15.09
2018-11-12T18:37:55.740Z,15.29
2018-11-12T18:40:25.632Z,14.91
2018-11-12T18:42:54.172Z,15.21
2018-11-12T18:45:23.892Z,15.33
2018-11-12T18:47:53.012Z,15.43
2018-11-12T18:50:23.463Z,15.42
2018-11-12T18:52:52.234Z,15.30
2018-11-12T18:55:20.687Z,14.98
2018-11-12T18:57:49.802Z,14.97
2018-11-12T19:00:19.637Z,14.68
2018-11-12T19:02:48.523Z,14.69
2018-11-12T19:05:18.938Z,14.72
2018-11-12T19:07:49.214Z,14.95
2018-11-12T19:10:19.222Z,15.14
2018-11-12T19:12:48.283Z,15.02
2018-11-12T19:15:19.323Z,15.21
2018-11-12T19:17:54.089Z,15.19
2018-11-12T19:20:22.702Z,15.26
2018-11-12T19:22:51.254Z,14.66
2018-11-12T19:25:19.749Z,14.75
2018-11-12T19:27:48.223Z,15.23
2018-11-12T19:30:21.383Z,15.03
2018-11-12T19:32:49.882Z,14.94
2018-11-12T19:35:20.140Z,14.73
2018-11-12T19:37:48.642Z,14.92
2018-11-12T19:40:18.703Z,14.91
2018-11-12T19:42:48.376Z,14.75
2018-11-12T19:45:17.040Z,14.33
2018-11-12T19:47:46.495Z,14.12
2018-11-12T19:50:17.493Z,14.38
2018-11-12T19:52:47.103Z,14.43
2018-11-12T19:55:15.828Z,14.37
2018-11-12T19:57:45.040Z,14.27
2018-11-12T20:00:15.011Z,14.39
2018-11-12T20:02:44.613Z,14.31
2018-11-12T20:05:13.131Z,13.95
2018-11-12T20:07:42.298Z,14.24
2018-11-12T20:10:12.874Z,14.13
2018-11-12T20:12:41.849Z,14.01
2018-11-12T20:15:11.763Z,14.85
2018-11-12T20:17:41.058Z,14.51
2018-11-12T20:20:14.282Z,15.07
2018-11-12T20:22:43.309Z,15.02
2018-11-12T20:25:13.327Z,15.13
2018-11-12T20:27:42.264Z,14.62
2018-11-12T20:30:15.883Z,14.98
2018-11-12T20:32:44.862Z,14.26
2018-11-12T20:35:13.323Z,14.74
2018-11-12T20:37:41.894Z,14.78
2018-11-12T20:40:11.455Z,14.58
2018-11-12T20:42:40.466Z,14.59
2018-11-12T20:45:10.416Z,14.50
2018-11-12T20:47:39.647Z,14.43
2018-11-12T20:50:09.412Z,14.37
2018-11-12T20:52:38.372Z,14.21
2018-11-12T20:55:08.620Z,14.44
2018-11-12T20:57:37.771Z,14.55
2018-11-12T21:00:10.414Z,14.85
2018-11-12T21:02:39.744Z,14.64
2018-11-12T21:05:09.191Z,13.65
2018-11-12T21:07:38.181Z,14.38
2018-11-12T21:10:07.869Z,14.98
2018-11-12T21:12:36.488Z,14.99
2018-11-12T21:15:05.581Z,14.98
2018-11-12T21:17:34.278Z,15.11
2018-11-12T21:20:02.793Z,14.89
2018-11-12T21:22:31.296Z,14.93
2018-11-12T21:25:00.546Z,14.33
2018-11-12T21:27:29.197Z,13.78
2018-11-12T21:29:58.051Z,13.72
2018-11-12T21:32:26.928Z,13.92
2018-11-12T21:34:55.440Z,13.68
2018-11-12T21:37:23.956Z,13.99
2018-11-12T21:39:52.442Z,13.88
2018-11-12T21:42:21.310Z,14.62
2018-11-12T21:44:49.772Z,14.85
2018-11-12T21:47:18.311Z,14.72
2018-11-12T21:49:46.820Z,14.29
2018-11-12T21:52:15.277Z,14.79
2018-11-12T21:54:43.891Z,14.31
2018-11-12T21:57:12.406Z,15.01
2018-11-12T21:59:40.931Z,14.77
2018-11-12T22:02:09.748Z,14.56
2018-11-12T22:04:38.272Z,14.60
2018-11-12T22:07:07.254Z,14.78
2018-11-12T22:09:35.764Z,14.70
2018-11-12T22:12:04.499Z,14.17
2018-11-12T22:14:33.715Z,14.20
2018-11-12T22:17:02.522Z,14.81
2018-11-12T22:19:31.086Z,14.82
2018-11-12T22:21:59.496Z,13.93
2018-11-12T22:24:27.976Z,14.74
2018-11-12T22:26:56.879Z,14.55
2018-11-12T22:29:25.412Z,14.94
2018-11-12T22:31:53.993Z,14.10
2018-11-12T22:34:22.468Z,14.31
2018-11-12T22:36:50.875Z,14.38
2018-11-12T22:39:19.396Z,14.74
2018-11-12T22:41:47.879Z,14.47
2018-11-12T22:44:16.750Z,14.45
2018-11-12T22:46:45.227Z,14.58
2018-11-12T22:49:13.756Z,14.94
2018-11-12T22:51:42.271Z,14.40
2018-11-12T22:54:10.826Z,14.10
2018-11-12T22:56:39.243Z,14.77
2018-11-12T22:59:07.756Z,15.32
2018-11-12T23:01:36.211Z,15.09
2018-11-12T23:04:04.744Z,14.99
2018-11-12T23:06:33.259Z,14.28
2018-11-12T23:09:01.854Z,14.67
2018-11-12T23:11:30.392Z,15.00
2018-11-12T23:13:58.854Z,14.75
2018-11-12T23:16:27.648Z,14.60
2018-11-12T23:18:56.202Z,14.58
2018-11-12T23:21:24.742Z,14.65
2018-11-12T23:23:53.557Z,14.75
2018-11-12T23:26:22.075Z,14.80
2018-11-12T23:28:50.582Z,14.92
2018-11-12T23:31:19.113Z,14.71
2018-11-12T23:33:47.843Z,15.03
2018-11-12T23:36:16.339Z,14.76
2018-11-12T23:38:44.903Z,15.20
2018-11-12T23:41:13.383Z,14.85
2018-11-12T23:43:41.909Z,14.82
2018-11-12T23:46:10.347Z,14.98
2018-11-12T23:48:38.852Z,14.94
2018-11-12T23:51:08.034Z,15.02
2018-11-12T23:53:36.502Z,14.91
2018-11-12T23:56:04.983Z,15.12
2018-11-12T23:58:33.641Z,14.75
